createdAt,value
2018-03-25T00:01:25.089Z,15.89
2018-03-25T00:03:52.339Z,15.88
2018-03-25T00:06:18.845Z,15.88
2018-03-25T00:08:45.334Z,15.88
2018-03-25T00:11:11.791Z,15.88
2018-03-25T00:13:38.293Z,15.88
2018-03-25T00:16:05.522Z,15.88
2018-03-25T00:18:32.034Z,15.89
2018-03-25T00:20:59.266Z,15.88
2018-03-25T00:23:25.728Z,15.89
2018-03-25T00:25:52.210Z,15.89
2018-03-25T00:28:18.671Z,15.88
2018-03-25T00:30:45.149Z,15.89
2018-03-25T00:33:12.374Z,15.89
2018-03-25T00:35:38.868Z,15.88
2018-03-25T00:38:05.330Z,15.88
2018-03-25T00:40:32.592Z,15.89
2018-03-25T00:42:59.060Z,15.89
2018-03-25T00:45:25.525Z,15.88
2018-03-25T00:47:51.995Z,15.88
2018-03-25T00:50:19.204Z,15.89
2018-03-25T00:52:45.721Z,15.89
2018-03-25T00:55:12.969Z,15.88
2018-03-25T00:57:39.416Z,15.89
2018-03-25T01:00:05.908Z,15.88
2018-03-25T01:02:32.364Z,15.89
2018-03-25T01:04:58.859Z,15.88
2018-03-25T01:07:25.310Z,15.89
2018-03-25T01:09:51.764Z,15.89
2018-03-25T01:12:18.254Z,15.89
2018-03-25T01:14:44.739Z,15.89
2018-03-25T01:17:11.216Z,15.89
2018-03-25T01:19:38.447Z,15.89
2018-03-25T01:22:04.956Z,15.89
2018-03-25T01:24:32.172Z,15.90
2018-03-25T01:26:58.630Z,15.89
2018-03-25T01:29:25.097Z,15.89
2018-03-25T01:31:51.563Z,15.89
2018-03-25T01:34:18.064Z,15.89
2018-03-25T01:36:45.298Z,15.89
2018-03-25T01:39:11.793Z,15.89
2018-03-25T01:41:39.037Z,15.89
2018-03-25T01:44:05.544Z,15.89
2018-03-25T01:46:32.777Z,15.89
2018-03-25T01:48:59.226Z,15.89
2018-03-25T01:51:25.719Z,15.89
2018-03-25T01:53:52.200Z,15.89
2018-03-25T01:56:18.668Z,15.90
2018-03-25T01:58:45.132Z,15.89
2018-03-25T02:01:11.611Z,15.89
2018-03-25T02:03:38.081Z,15.89
2018-03-25T02:06:04.557Z,15.89
2018-03-25T02:08:31.021Z,15.90
2018-03-25T02:10:57.539Z,15.89
2018-03-25T02:13:24.015Z,15.90
2018-03-25T02:15:50.465Z,15.89
2018-03-25T02:18:16.950Z,15.90
2018-03-25T02:20:43.415Z,15.90
2018-03-25T02:23:10.693Z,15.90
2018-03-25T02:25:37.916Z,15.90
2018-03-25T02:28:04.390Z,15.90
2018-03-25T02:30:30.859Z,15.90
2018-03-25T02:32:57.308Z,15.89
2018-03-25T02:35:23.822Z,15.90
2018-03-25T02:37:50.287Z,15.90
2018-03-25T02:40:16.752Z,15.90
2018-03-25T02:42:43.203Z,15.90
2018-03-25T02:45:09.683Z,15.90
2018-03-25T02:47:36.200Z,15.90
2018-03-25T02:50:03.412Z,15.90
2018-03-25T02:52:29.909Z,15.90
2018-03-25T02:54:57.134Z,15.90
2018-03-25T02:57:23.592Z,15.90
2018-03-25T02:59:50.082Z,15.90
2018-03-25T03:02:16.611Z,15.90
2018-03-25T03:04:43.061Z,15.90
2018-03-25T03:07:09.508Z,15.89
2018-03-25T03:09:36.766Z,15.90
2018-03-25T03:12:03.213Z,15.90
2018-03-25T03:14:29.687Z,15.90
2018-03-25T03:16:56.941Z,15.90
2018-03-25T03:19:23.410Z,15.90
2018-03-25T03:21:49.908Z,15.90
2018-03-25T03:24:16.380Z,15.90
2018-03-25T03:26:42.888Z,15.91
2018-03-25T03:29:09.347Z,15.91
2018-03-25T03:31:35.805Z,15.91
2018-03-25T03:34:02.274Z,15.90
2018-03-25T03:36:29.485Z,15.90
2018-03-25T03:38:55.985Z,15.91
2018-03-25T03:41:22.438Z,15.91
2018-03-25T03:43:48.937Z,15.91
2018-03-25T03:46:16.168Z,15.91
2018-03-25T03:48:42.634Z,15.91
2018-03-25T03:51:09.136Z,15.93
2018-03-25T03:53:35.598Z,15.91
2018-03-25T03:56:02.099Z,15.91
2018-03-25T03:58:28.551Z,15.91
2018-03-25T04:00:55.053Z,15.91
2018-03-25T04:03:22.265Z,15.92
2018-03-25T04:05:48.746Z,15.91
2018-03-25T04:08:15.209Z,15.91
2018-03-25T04:10:41.706Z,15.91
2018-03-25T04:13:08.918Z,15.92
2018-03-25T04:15:35.366Z,15.91
2018-03-25T04:18:01.869Z,15.90
2018-03-25T04:20:28.317Z,15.92
2018-03-25T04:22:54.787Z,15.92
2018-03-25T04:25:21.244Z,15.92
2018-03-25T04:27:48.550Z,15.91
2018-03-25T04:30:15.038Z,15.91
2018-03-25T04:32:41.480Z,15.91
2018-03-25T04:35:08.746Z,15.92
2018-03-25T04:37:35.993Z,15.91
2018-03-25T04:40:02.481Z,15.91
2018-03-25T04:42:29.709Z,15.91
2018-03-25T04:44:56.156Z,15.92
2018-03-25T04:47:22.660Z,15.91
2018-03-25T04:49:49.933Z,15.92
2018-03-25T04:52:16.419Z,15.90
2018-03-25T04:54:43.654Z,15.91
2018-03-25T04:57:10.186Z,15.91
2018-03-25T04:59:36.693Z,15.91
2018-03-25T05:02:03.155Z,15.90
2018-03-25T05:04:29.629Z,15.92
2018-03-25T05:06:56.870Z,15.92
2018-03-25T05:09:23.325Z,15.91
2018-03-25T05:11:49.818Z,15.91
2018-03-25T05:14:17.061Z,15.91
2018-03-25T05:16:43.536Z,15.91
2018-03-25T05:19:09.993Z,15.91
2018-03-25T05:21:36.470Z,15.92
2018-03-25T05:24:03.684Z,15.91
2018-03-25T05:26:30.143Z,15.91
2018-03-25T05:28:56.627Z,15.91
2018-03-25T05:31:23.078Z,15.91
2018-03-25T05:33:49.564Z,15.91
2018-03-25T05:36:16.013Z,15.90
2018-03-25T05:38:42.486Z,15.91
2018-03-25T05:41:09.700Z,15.91
2018-03-25T05:43:36.174Z,15.92
2018-03-25T05:46:02.655Z,15.92
2018-03-25T05:48:29.114Z,15.92
2018-03-25T05:50:55.606Z,15.92
2018-03-25T05:53:22.843Z,15.92
2018-03-25T05:55:49.320Z,15.93
2018-03-25T05:58:15.778Z,15.92
2018-03-25T06:00:42.252Z,15.92
2018-03-25T06:03:09.529Z,15.92
2018-03-25T06:05:36.778Z,15.91
2018-03-25T06:08:03.266Z,15.92
2018-03-25T06:10:30.501Z,15.92
2018-03-25T06:12:56.997Z,15.92
2018-03-25T06:15:24.236Z,15.92
2018-03-25T06:17:50.707Z,15.92
2018-03-25T06:20:17.185Z,15.92
2018-03-25T06:22:43.638Z,15.92
2018-03-25T06:25:10.142Z,15.92
2018-03-25T06:27:36.602Z,15.92
2018-03-25T06:30:03.073Z,15.92
2018-03-25T06:32:29.577Z,15.92
2018-03-25T06:34:56.788Z,15.91
2018-03-25T06:37:23.370Z,15.91
2018-03-25T06:39:49.827Z,15.92
2018-03-25T06:42:16.372Z,15.92
2018-03-25T06:44:42.825Z,15.92
2018-03-25T06:47:09.315Z,15.92
2018-03-25T06:49:35.778Z,15.92
2018-03-25T06:52:02.263Z,15.92
2018-03-25T06:54:28.720Z,15.92
2018-03-25T06:56:55.206Z,15.92
2018-03-25T06:59:21.663Z,15.91
2018-03-25T07:01:48.252Z,15.92
2018-03-25T07:04:14.710Z,15.92
2018-03-25T07:06:41.185Z,15.92
2018-03-25T07:09:07.636Z,15.92
2018-03-25T07:11:34.087Z,15.92
2018-03-25T07:14:00.547Z,15.92
2018-03-25T07:16:26.997Z,15.93
2018-03-25T07:18:53.478Z,15.92
2018-03-25T07:21:19.945Z,15.92
2018-03-25T07:23:46.444Z,15.92
2018-03-25T07:26:12.906Z,15.92
2018-03-25T07:28:39.399Z,15.71
2018-03-25T07:31:05.859Z,15.69
2018-03-25T07:33:32.326Z,15.84
2018-03-25T07:35:58.829Z,15.88
2018-03-25T07:38:26.053Z,15.90
2018-03-25T07:40:52.533Z,15.91
2018-03-25T07:43:18.981Z,15.91
2018-03-25T07:45:45.467Z,15.91
2018-03-25T07:48:11.917Z,15.92
2018-03-25T07:50:38.407Z,15.92
2018-03-25T07:53:04.875Z,15.94
2018-03-25T07:55:31.344Z,15.53
2018-03-25T07:57:57.831Z,15.64
2018-03-25T08:00:24.301Z,15.81
2018-03-25T08:02:50.790Z,15.86
2018-03-25T08:05:18.017Z,15.87
2018-03-25T08:07:44.471Z,15.89
2018-03-25T08:10:10.970Z,15.89
2018-03-25T08:12:38.216Z,15.89
2018-03-25T08:15:04.702Z,15.90
2018-03-25T08:17:31.925Z,15.90
2018-03-25T08:19:58.369Z,15.91
2018-03-25T08:22:24.863Z,15.90
2018-03-25T08:24:51.325Z,15.91
2018-03-25T08:27:17.789Z,15.90
2018-03-25T08:29:44.343Z,15.91
2018-03-25T08:32:10.940Z,15.90
2018-03-25T08:34:37.436Z,15.91
2018-03-25T08:37:03.891Z,15.93
2018-03-25T08:39:30.391Z,15.93
2018-03-25T08:41:56.865Z,15.92
2018-03-25T08:44:24.125Z,15.90
2018-03-25T08:46:50.634Z,15.91
2018-03-25T08:49:17.163Z,15.92
2018-03-25T08:51:43.962Z,15.92
2018-03-25T08:54:10.493Z,15.91
2018-03-25T08:56:37.746Z,15.92
2018-03-25T08:59:04.211Z,15.92
2018-03-25T09:01:30.705Z,15.93
2018-03-25T09:03:57.251Z,15.92
2018-03-25T09:06:23.730Z,15.92
2018-03-25T09:08:50.209Z,15.92
2018-03-25T09:11:16.711Z,15.92
2018-03-25T09:13:43.171Z,15.91
2018-03-25T09:16:09.863Z,15.92
2018-03-25T09:18:36.623Z,15.92
2018-03-25T09:21:03.114Z,15.92
2018-03-25T09:23:29.637Z,15.92
2018-03-25T09:25:56.088Z,15.91
2018-03-25T09:28:23.343Z,15.91
2018-03-25T09:30:49.802Z,15.91
2018-03-25T09:33:16.815Z,15.92
2018-03-25T09:35:44.291Z,15.91
2018-03-25T09:38:11.289Z,15.92
2018-03-25T09:40:38.023Z,15.92
2018-03-25T09:43:04.757Z,15.92
2018-03-25T09:45:31.480Z,15.92
2018-03-25T09:47:58.417Z,15.92
2018-03-25T09:50:24.929Z,15.92
2018-03-25T09:52:51.922Z,15.92
2018-03-25T09:55:18.876Z,15.92
2018-03-25T09:57:45.822Z,15.92
2018-03-25T10:00:12.477Z,15.93
2018-03-25T10:02:39.156Z,15.92
2018-03-25T10:05:05.837Z,15.92
2018-03-25T10:07:32.567Z,15.93
2018-03-25T10:10:00.111Z,15.93
2018-03-25T10:12:26.663Z,15.93
2018-03-25T10:14:54.181Z,15.93
2018-03-25T10:17:20.945Z,15.92
2018-03-25T10:19:47.562Z,15.92
2018-03-25T10:22:14.260Z,15.93
2018-03-25T10:24:40.915Z,15.93
2018-03-25T10:27:07.424Z,15.93
2018-03-25T10:29:34.100Z,15.92
2018-03-25T10:32:00.783Z,15.93
2018-03-25T10:34:27.521Z,15.92
2018-03-25T10:36:54.202Z,15.93
2018-03-25T10:39:21.813Z,15.92
2018-03-25T10:41:48.311Z,15.91
2018-03-25T10:44:14.789Z,15.93
2018-03-25T10:46:41.323Z,15.92
2018-03-25T10:49:07.817Z,15.79
2018-03-25T10:51:34.630Z,15.87
2018-03-25T10:54:01.401Z,15.90
2018-03-25T10:56:28.329Z,15.92
2018-03-25T10:58:55.153Z,15.93
2018-03-25T11:01:21.861Z,15.93
2018-03-25T11:03:49.006Z,15.93
2018-03-25T11:06:16.050Z,15.94
2018-03-25T11:08:42.960Z,15.93
2018-03-25T11:11:10.283Z,15.93
2018-03-25T11:13:37.575Z,15.93
2018-03-25T11:16:04.096Z,15.93
2018-03-25T11:18:31.342Z,15.93
2018-03-25T11:20:58.042Z,15.93
2018-03-25T11:23:25.735Z,15.92
2018-03-25T11:25:52.749Z,15.93
2018-03-25T11:28:19.846Z,15.93
2018-03-25T11:30:46.897Z,15.93
2018-03-25T11:33:13.864Z,15.93
2018-03-25T11:35:40.809Z,15.94
2018-03-25T11:38:07.791Z,15.90
2018-03-25T11:40:34.616Z,15.89
2018-03-25T11:43:01.651Z,15.91
2018-03-25T11:45:29.372Z,15.91
2018-03-25T11:47:56.072Z,15.92
2018-03-25T11:50:22.774Z,15.92
2018-03-25T11:52:50.614Z,15.92
2018-03-25T11:55:17.515Z,15.62
2018-03-25T11:57:45.423Z,15.50
2018-03-25T12:00:12.451Z,15.74
2018-03-25T12:02:39.964Z,15.85
2018-03-25T12:05:06.972Z,15.87
2018-03-25T12:07:33.997Z,15.88
2018-03-25T12:10:01.111Z,15.90
2018-03-25T12:12:27.750Z,15.90
2018-03-25T12:14:54.736Z,15.91
2018-03-25T12:17:21.600Z,15.90
2018-03-25T12:19:48.170Z,15.91
2018-03-25T12:22:14.796Z,15.89
2018-03-25T12:24:41.279Z,15.90
2018-03-25T12:27:07.849Z,15.88
2018-03-25T12:29:34.465Z,15.87
2018-03-25T12:32:00.947Z,15.90
2018-03-25T12:34:27.644Z,15.90
2018-03-25T12:36:54.966Z,15.91
2018-03-25T12:39:21.416Z,15.91
2018-03-25T12:41:48.085Z,15.91
2018-03-25T12:44:14.612Z,15.91
2018-03-25T12:46:41.075Z,15.91
2018-03-25T12:49:07.573Z,15.91
2018-03-25T12:51:34.038Z,15.90
2018-03-25T12:54:00.574Z,15.91
2018-03-25T12:56:27.855Z,15.92
2018-03-25T12:58:54.711Z,15.92
2018-03-25T13:01:21.589Z,15.90
2018-03-25T13:03:48.366Z,15.90
2018-03-25T13:06:15.602Z,15.89
2018-03-25T13:08:42.852Z,15.88
2018-03-25T13:11:09.721Z,15.87
2018-03-25T13:13:36.673Z,15.88
2018-03-25T13:16:03.618Z,15.89
2018-03-25T13:18:31.390Z,15.88
2018-03-25T13:20:58.516Z,15.88
2018-03-25T13:23:26.312Z,15.88
2018-03-25T13:25:53.503Z,15.89
2018-03-25T13:28:20.809Z,15.91
2018-03-25T13:30:48.785Z,15.92
2018-03-25T13:33:16.096Z,15.93
2018-03-25T13:35:42.843Z,15.92
2018-03-25T13:38:10.948Z,15.92
2018-03-25T13:40:37.764Z,15.90
2018-03-25T13:43:05.640Z,15.88
2018-03-25T13:45:33.149Z,15.88
2018-03-25T13:47:59.766Z,15.89
2018-03-25T13:50:26.330Z,15.89
2018-03-25T13:52:53.459Z,15.88
2018-03-25T13:55:20.420Z,15.88
2018-03-25T13:57:47.297Z,15.88
2018-03-25T14:00:13.904Z,15.89
2018-03-25T14:02:40.642Z,15.88
2018-03-25T14:05:08.041Z,15.88
2018-03-25T14:07:36.107Z,15.89
2018-03-25T14:10:03.134Z,15.88
2018-03-25T14:12:29.651Z,15.88
2018-03-25T14:14:56.437Z,15.89
2018-03-25T14:17:23.160Z,15.88
2018-03-25T14:19:50.494Z,15.88
2018-03-25T14:22:17.280Z,15.88
2018-03-25T14:24:43.840Z,15.88
2018-03-25T14:27:10.382Z,15.88
2018-03-25T14:29:37.196Z,15.88
2018-03-25T14:32:04.061Z,15.88
2018-03-25T14:34:30.899Z,15.89
2018-03-25T14:36:57.610Z,15.88
2018-03-25T14:39:24.914Z,15.88
2018-03-25T14:41:51.704Z,15.88
2018-03-25T14:44:18.490Z,15.89
2018-03-25T14:46:46.155Z,15.88
2018-03-25T14:49:13.091Z,15.88
2018-03-25T14:51:39.939Z,15.88
2018-03-25T14:54:06.723Z,15.88
2018-03-25T14:56:33.754Z,15.87
2018-03-25T14:59:00.956Z,15.90
2018-03-25T15:01:27.726Z,15.91
2018-03-25T15:03:55.073Z,15.89
2018-03-25T15:06:21.567Z,15.89
2018-03-25T15:08:48.405Z,15.89
2018-03-25T15:11:15.729Z,15.88
2018-03-25T15:13:43.615Z,15.88
2018-03-25T15:16:10.220Z,15.89
2018-03-25T15:18:37.238Z,15.88
2018-03-25T15:21:04.387Z,15.88
2018-03-25T15:23:31.436Z,15.88
2018-03-25T15:25:58.469Z,15.88
2018-03-25T15:28:25.654Z,15.88
2018-03-25T15:30:53.439Z,15.91
2018-03-25T15:33:21.392Z,15.93
2018-03-25T15:35:48.466Z,15.89
2018-03-25T15:38:17.786Z,15.89
2018-03-25T15:40:44.898Z,15.69
2018-03-25T15:43:11.816Z,15.86
2018-03-25T15:45:39.661Z,15.89
2018-03-25T15:48:06.821Z,15.87
2018-03-25T15:50:33.960Z,15.89
2018-03-25T15:53:00.995Z,15.88
2018-03-25T15:55:28.122Z,15.88
2018-03-25T15:57:55.186Z,15.89
2018-03-25T16:00:22.294Z,15.87
2018-03-25T16:02:49.314Z,15.88
2018-03-25T16:05:16.448Z,15.88
2018-03-25T16:07:44.587Z,15.89
2018-03-25T16:10:12.653Z,15.89
2018-03-25T16:12:40.602Z,15.89
2018-03-25T16:15:07.745Z,15.89
2018-03-25T16:17:34.922Z,15.89
2018-03-25T16:20:02.038Z,15.88
2018-03-25T16:22:29.185Z,15.88
2018-03-25T16:24:56.305Z,15.88
2018-03-25T16:27:23.405Z,15.88
2018-03-25T16:29:51.220Z,15.88
2018-03-25T16:32:18.319Z,15.89
2018-03-25T16:34:45.440Z,15.88
2018-03-25T16:37:13.119Z,15.88
2018-03-25T16:39:40.960Z,15.88
2018-03-25T16:42:08.021Z,15.88
2018-03-25T16:44:35.221Z,15.88
2018-03-25T16:47:02.341Z,15.88
2018-03-25T16:49:29.458Z,15.89
2018-03-25T16:51:56.553Z,15.88
2018-03-25T16:54:23.827Z,15.88
2018-03-25T16:56:50.944Z,15.89
2018-03-25T16:59:18.068Z,15.88
2018-03-25T17:01:45.226Z,15.88
2018-03-25T17:04:13.220Z,15.88
2018-03-25T17:06:40.284Z,15.89
2018-03-25T17:09:07.383Z,15.89
2018-03-25T17:11:34.489Z,15.89
2018-03-25T17:14:02.340Z,15.88
2018-03-25T17:16:29.556Z,15.88
2018-03-25T17:18:57.439Z,15.87
2018-03-25T17:21:25.298Z,15.88
2018-03-25T17:23:52.429Z,15.88
2018-03-25T17:26:19.499Z,15.88
2018-03-25T17:28:46.584Z,15.88
2018-03-25T17:31:13.654Z,15.87
2018-03-25T17:33:40.755Z,15.88
2018-03-25T17:36:07.834Z,15.88
2018-03-25T17:38:34.954Z,15.88
2018-03-25T17:41:02.002Z,15.87
2018-03-25T17:43:29.214Z,15.88
2018-03-25T17:45:56.285Z,15.88
2018-03-25T17:48:23.521Z,15.88
2018-03-25T17:50:50.611Z,15.88
2018-03-25T17:53:18.578Z,15.87
2018-03-25T17:55:45.833Z,15.88
2018-03-25T17:58:13.161Z,15.87
2018-03-25T18:00:41.031Z,15.88
2018-03-25T18:03:08.156Z,15.89
2018-03-25T18:05:35.305Z,15.92
2018-03-25T18:08:03.208Z,15.89
2018-03-25T18:10:30.339Z,15.88
2018-03-25T18:12:58.257Z,15.87
2018-03-25T18:15:26.247Z,15.88
2018-03-25T18:17:53.391Z,15.88
2018-03-25T18:20:20.610Z,15.88
2018-03-25T18:22:48.568Z,15.88
2018-03-25T18:25:15.656Z,15.87
2018-03-25T18:27:43.815Z,15.88
2018-03-25T18:30:11.024Z,15.88
2018-03-25T18:32:38.181Z,15.87
2018-03-25T18:35:05.387Z,15.87
2018-03-25T18:37:32.481Z,15.87
2018-03-25T18:40:00.382Z,15.87
2018-03-25T18:42:28.317Z,15.87
2018-03-25T18:44:55.410Z,15.87
2018-03-25T18:47:22.652Z,15.86
2018-03-25T18:49:49.986Z,15.88
2018-03-25T18:52:18.664Z,15.87
2018-03-25T18:54:45.936Z,15.87
2018-03-25T18:57:13.219Z,15.87
2018-03-25T18:59:40.477Z,15.86
2018-03-25T19:02:07.606Z,15.87
2018-03-25T19:04:35.556Z,15.87
2018-03-25T19:07:02.660Z,15.86
2018-03-25T19:09:29.774Z,15.86
2018-03-25T19:11:57.675Z,15.87
2018-03-25T19:14:24.760Z,15.87
2018-03-25T19:16:52.004Z,15.86
2018-03-25T19:19:19.148Z,15.85
2018-03-25T19:21:46.256Z,15.85
2018-03-25T19:24:13.386Z,15.85
2018-03-25T19:26:40.460Z,15.85
2018-03-25T19:29:07.588Z,15.85
2018-03-25T19:31:34.665Z,15.86
2018-03-25T19:34:01.802Z,15.85
2018-03-25T19:36:29.687Z,15.84
2018-03-25T19:38:57.687Z,15.85
2018-03-25T19:41:24.858Z,15.85
2018-03-25T19:43:53.212Z,15.85
2018-03-25T19:46:20.292Z,15.86
2018-03-25T19:48:47.389Z,15.87
2018-03-25T19:51:14.529Z,15.87
2018-03-25T19:53:42.541Z,15.86
2018-03-25T19:56:09.784Z,15.87
2018-03-25T19:58:36.908Z,15.88
2018-03-25T20:01:04.114Z,15.90
2018-03-25T20:03:31.945Z,15.92
2018-03-25T20:05:59.182Z,15.89
2018-03-25T20:08:26.329Z,15.90
2018-03-25T20:10:53.457Z,15.92
2018-03-25T20:13:20.663Z,15.73
2018-03-25T20:15:47.801Z,15.83
2018-03-25T20:18:14.917Z,15.90
2018-03-25T20:20:42.067Z,15.92
2018-03-25T20:23:09.312Z,15.91
2018-03-25T20:25:36.425Z,15.92
2018-03-25T20:28:03.690Z,15.91
2018-03-25T20:30:30.936Z,15.92
2018-03-25T20:32:58.250Z,15.91
2018-03-25T20:35:26.209Z,15.91
2018-03-25T20:37:53.828Z,15.92
2018-03-25T20:40:21.057Z,15.92
2018-03-25T20:42:48.988Z,15.92
2018-03-25T20:45:16.296Z,15.92
2018-03-25T20:47:43.424Z,15.92
2018-03-25T20:50:10.557Z,15.91
2018-03-25T20:52:37.789Z,15.92
2018-03-25T20:55:04.885Z,15.91
2018-03-25T20:57:32.080Z,15.92
2018-03-25T20:59:59.190Z,15.91
2018-03-25T21:02:26.418Z,15.91
2018-03-25T21:04:53.931Z,15.91
2018-03-25T21:07:22.770Z,15.92
2018-03-25T21:09:49.891Z,15.92
2018-03-25T21:12:17.069Z,15.92
2018-03-25T21:14:44.341Z,15.93
2018-03-25T21:17:11.554Z,15.92
2018-03-25T21:19:38.747Z,15.92
2018-03-25T21:22:06.679Z,15.93
2018-03-25T21:24:33.971Z,15.93
2018-03-25T21:27:01.168Z,15.92
2018-03-25T21:29:29.037Z,15.92
2018-03-25T21:31:56.183Z,15.92
2018-03-25T21:34:23.256Z,15.92
2018-03-25T21:36:50.470Z,15.92
2018-03-25T21:39:18.313Z,15.93
2018-03-25T21:41:45.419Z,15.93
2018-03-25T21:44:12.586Z,15.92
2018-03-25T21:46:39.633Z,15.92
2018-03-25T21:49:06.843Z,15.92
2018-03-25T21:51:34.589Z,15.92
2018-03-25T21:54:01.623Z,15.91
2018-03-25T21:56:28.760Z,15.92
2018-03-25T21:58:55.661Z,15.91
2018-03-25T22:01:24.061Z,15.92
2018-03-25T22:03:51.072Z,15.91
2018-03-25T22:06:18.077Z,15.91
2018-03-25T22:08:44.745Z,15.91
2018-03-25T22:11:11.601Z,15.92
2018-03-25T22:13:38.181Z,15.91
2018-03-25T22:16:04.677Z,15.92
2018-03-25T22:18:31.187Z,15.91
2018-03-25T22:20:57.735Z,15.59
2018-03-25T22:23:24.278Z,15.72
2018-03-25T22:25:50.761Z,15.87
2018-03-25T22:28:17.285Z,15.89
2018-03-25T22:30:43.729Z,15.91
2018-03-25T22:33:10.982Z,15.91
2018-03-25T22:35:37.437Z,15.92
2018-03-25T22:38:03.929Z,15.92
2018-03-25T22:40:30.460Z,15.92
2018-03-25T22:42:56.922Z,15.93
2018-03-25T22:45:23.404Z,15.93
2018-03-25T22:47:49.870Z,15.93
2018-03-25T22:50:16.355Z,15.93
2018-03-25T22:52:42.821Z,15.92
2018-03-25T22:55:09.335Z,15.93
2018-03-25T22:57:35.800Z,15.92
2018-03-25T23:00:02.264Z,15.92
2018-03-25T23:02:28.782Z,15.93
2018-03-25T23:04:55.273Z,15.93
2018-03-25T23:07:21.769Z,15.93
2018-03-25T23:09:48.254Z,15.93
2018-03-25T23:12:14.765Z,15.92
2018-03-25T23:14:41.246Z,15.93
2018-03-25T23:17:07.739Z,15.92
2018-03-25T23:19:34.995Z,15.93
2018-03-25T23:22:01.465Z,15.93
2018-03-25T23:24:27.951Z,15.92
2018-03-25T23:26:55.208Z,15.92
2018-03-25T23:29:23.186Z,15.92
2018-03-25T23:31:49.824Z,15.92
2018-03-25T23:34:16.455Z,15.93
2018-03-25T23:36:43.071Z,15.93
2018-03-25T23:39:09.552Z,15.93
2018-03-25T23:41:37.313Z,15.93
2018-03-25T23:44:04.404Z,15.92
2018-03-25T23:46:31.051Z,15.93
2018-03-25T23:48:58.190Z,15.93
2018-03-25T23:51:25.205Z,15.93
2018-03-25T23:53:52.421Z,15.93
2018-03-25T23:56:19.222Z,15.94
2018-03-25T23:58:45.734Z,15.94
